sensor_id;sensor_type;location;lat;lon;timestamp;P1;durP1;ratioP1;P2;durP2;ratioP2
16743;SDS011;71724;-33.900;151.182;2023-12-20T00:02:27;5.22;;;1.17;;
16743;SDS011;71724;-33.900;151.182;2023-12-20T00:04:54;7.32;;;1.10;;
16743;SDS011;71724;-33.900;151.182;2023-12-20T00:07:21;6.95;;;1.42;;
16743;SDS011;71724;-33.900;151.182;2023-12-20T00:09:49;6.10;;;1.27;;
16743;SDS011;71724;-33.900;151.182;2023-12-20T00:12:16;7.55;;;1.48;;
16743;SDS011;71724;-33.900;151.182;2023-12-20T00:14:44;9.32;;;1.58;;
16743;SDS011;71724;-33.900;151.182;2023-12-20T00:17:11;9.50;;;1.60;;
16743;SDS011;71724;-33.900;151.182;2023-12-20T00:19:38;10.02;;;1.55;;
16743;SDS011;71724;-33.900;151.182;2023-12-20T00:22:06;9.45;;;1.45;;
16743;SDS011;71724;-33.900;151.182;2023-12-20T00:24:33;9.32;;;1.30;;
16743;SDS011;71724;-33.900;151.182;2023-12-20T00:27:01;7.70;;;1.55;;
16743;SDS011;71724;-33.900;151.182;2023-12-20T00:29:28;6.50;;;1.70;;
16743;SDS011;71724;-33.900;151.182;2023-12-20T00:31:56;6.82;;;1.38;;
16743;SDS011;71724;-33.900;151.182;2023-12-20T00:34:23;5.20;;;1.38;;
16743;SDS011;71724;-33.900;151.182;2023-12-20T00:36:50;12.15;;;2.00;;
16743;SDS011;71724;-33.900;151.182;2023-12-20T00:39:18;6.13;;;1.40;;
16743;SDS011;71724;-33.900;151.182;2023-12-20T00:41:45;10.27;;;1.67;;
16743;SDS011;71724;-33.900;151.182;2023-12-20T00:44:12;5.57;;;1.42;;
16743;SDS011;71724;-33.900;151.182;2023-12-20T00:46:40;8.85;;;1.50;;
16743;SDS011;71724;-33.900;151.182;2023-12-20T00:49:07;6.03;;;1.23;;
16743;SDS011;71724;-33.900;151.182;2023-12-20T00:51:35;6.88;;;1.10;;
16743;SDS011;71724;-33.900;151.182;2023-12-20T00:54:02;9.10;;;1.73;;
16743;SDS011;71724;-33.900;151.182;2023-12-20T00:56:29;10.15;;;1.48;;
16743;SDS011;71724;-33.900;151.182;2023-12-20T00:58:57;8.95;;;1.27;;
16743;SDS011;71724;-33.900;151.182;2023-12-20T01:01:26;8.85;;;1.35;;
16743;SDS011;71724;-33.900;151.182;2023-12-20T01:03:54;9.65;;;1.30;;
16743;SDS011;71724;-33.900;151.182;2023-12-20T01:06:21;8.25;;;1.40;;
16743;SDS011;71724;-33.900;151.182;2023-12-20T01:08:49;4.57;;;1.27;;
16743;SDS011;71724;-33.900;151.182;2023-12-20T01:11:16;8.02;;;1.27;;
16743;SDS011;71724;-33.900;151.182;2023-12-20T01:13:43;8.63;;;1.30;;
16743;SDS011;71724;-33.900;151.182;2023-12-20T01:16:12;7.43;;;1.70;;
16743;SDS011;71724;-33.900;151.182;2023-12-20T01:18:39;6.45;;;1.10;;
16743;SDS011;71724;-33.900;151.182;2023-12-20T01:21:07;6.13;;;1.45;;
16743;SDS011;71724;-33.900;151.182;2023-12-20T01:23:34;12.27;;;1.40;;
16743;SDS011;71724;-33.900;151.182;2023-12-20T01:26:01;5.50;;;1.15;;
16743;SDS011;71724;-33.900;151.182;2023-12-20T01:28:31;6.32;;;1.40;;
16743;SDS011;71724;-33.900;151.182;2023-12-20T01:30:58;6.13;;;1.50;;
16743;SDS011;71724;-33.900;151.182;2023-12-20T01:33:25;10.85;;;1.85;;
16743;SDS011;71724;-33.900;151.182;2023-12-20T01:35:53;8.48;;;1.40;;
16743;SDS011;71724;-33.900;151.182;2023-12-20T01:38:20;6.47;;;1.40;;
16743;SDS011;71724;-33.900;151.182;2023-12-20T01:40:48;7.00;;;1.52;;
16743;SDS011;71724;-33.900;151.182;2023-12-20T01:43:15;5.15;;;1.30;;
16743;SDS011;71724;-33.900;151.182;2023-12-20T01:45:42;8.52;;;1.73;;
16743;SDS011;71724;-33.900;151.182;2023-12-20T01:48:10;9.57;;;1.67;;
16743;SDS011;71724;-33.900;151.182;2023-12-20T01:50:37;8.70;;;1.27;;
16743;SDS011;71724;-33.900;151.182;2023-12-20T01:53:05;8.40;;;1.65;;
16743;SDS011;71724;-33.900;151.182;2023-12-20T01:55:36;8.65;;;1.48;;
16743;SDS011;71724;-33.900;151.182;2023-12-20T01:58:07;11.80;;;2.00;;
16743;SDS011;71724;-33.900;151.182;2023-12-20T02:00:38;10.40;;;1.50;;
16743;SDS011;71724;-33.900;151.182;2023-12-20T02:03:06;10.35;;;1.75;;
16743;SDS011;71724;-33.900;151.182;2023-12-20T02:05:35;7.28;;;1.40;;
16743;SDS011;71724;-33.900;151.182;2023-12-20T02:08:04;8.43;;;1.23;;
16743;SDS011;71724;-33.900;151.182;2023-12-20T02:10:32;6.30;;;1.35;;
16743;SDS011;71724;-33.900;151.182;2023-12-20T02:13:00;8.60;;;1.80;;
16743;SDS011;71724;-33.900;151.182;2023-12-20T02:15:27;10.35;;;1.52;;
16743;SDS011;71724;-33.900;151.182;2023-12-20T02:17:55;5.75;;;1.27;;
16743;SDS011;71724;-33.900;151.182;2023-12-20T02:20:23;7.60;;;1.80;;
16743;SDS011;71724;-33.900;151.182;2023-12-20T02:22:50;8.70;;;1.85;;
16743;SDS011;71724;-33.900;151.182;2023-12-20T02:25:17;8.95;;;1.23;;
16743;SDS011;71724;-33.900;151.182;2023-12-20T02:27:45;3.95;;;1.17;;
16743;SDS011;71724;-33.900;151.182;2023-12-20T02:30:12;9.55;;;1.58;;
16743;SDS011;71724;-33.900;151.182;2023-12-20T02:32:40;6.38;;;1.60;;
16743;SDS011;71724;-33.900;151.182;2023-12-20T02:35:08;11.18;;;1.40;;
16743;SDS011;71724;-33.900;151.182;2023-12-20T02:37:35;8.50;;;1.40;;
16743;SDS011;71724;-33.900;151.182;2023-12-20T02:40:02;8.88;;;1.40;;
16743;SDS011;71724;-33.900;151.182;2023-12-20T02:42:30;7.82;;;1.50;;
16743;SDS011;71724;-33.900;151.182;2023-12-20T02:44:58;10.23;;;1.60;;
16743;SDS011;71724;-33.900;151.182;2023-12-20T02:47:25;8.57;;;1.77;;
16743;SDS011;71724;-33.900;151.182;2023-12-20T02:49:53;5.80;;;1.20;;
16743;SDS011;71724;-33.900;151.182;2023-12-20T02:52:20;4.47;;;1.17;;
16743;SDS011;71724;-33.900;151.182;2023-12-20T02:54:48;3.78;;;1.10;;
16743;SDS011;71724;-33.900;151.182;2023-12-20T02:57:19;6.68;;;1.20;;
16743;SDS011;71724;-33.900;151.182;2023-12-20T02:59:46;5.43;;;1.40;;
16743;SDS011;71724;-33.900;151.182;2023-12-20T03:02:15;8.35;;;1.75;;
16743;SDS011;71724;-33.900;151.182;2023-12-20T03:04:42;7.20;;;1.27;;
16743;SDS011;71724;-33.900;151.182;2023-12-20T03:07:10;7.88;;;1.23;;
16743;SDS011;71724;-33.900;151.182;2023-12-20T03:09:37;10.27;;;1.23;;
16743;SDS011;71724;-33.900;151.182;2023-12-20T03:12:07;5.88;;;1.20;;
16743;SDS011;71724;-33.900;151.182;2023-12-20T03:14:34;6.88;;;1.10;;
16743;SDS011;71724;-33.900;151.182;2023-12-20T03:17:03;9.98;;;1.25;;
16743;SDS011;71724;-33.900;151.182;2023-12-20T03:19:30;7.50;;;1.70;;
16743;SDS011;71724;-33.900;151.182;2023-12-20T03:21:57;10.25;;;1.80;;
16743;SDS011;71724;-33.900;151.182;2023-12-20T03:24:28;6.07;;;1.23;;
16743;SDS011;71724;-33.900;151.182;2023-12-20T03:26:56;9.68;;;1.33;;
16743;SDS011;71724;-33.900;151.182;2023-12-20T03:29:24;8.68;;;1.50;;
16743;SDS011;71724;-33.900;151.182;2023-12-20T03:31:52;5.57;;;1.83;;
16743;SDS011;71724;-33.900;151.182;2023-12-20T03:37:00;11.07;;;2.10;;
16743;SDS011;71724;-33.900;151.182;2023-12-20T03:39:28;12.35;;;2.33;;
16743;SDS011;71724;-33.900;151.182;2023-12-20T03:41:55;12.30;;;1.83;;
16743;SDS011;71724;-33.900;151.182;2023-12-20T03:44:22;9.02;;;1.38;;
16743;SDS011;71724;-33.900;151.182;2023-12-20T03:46:50;6.65;;;1.23;;
16743;SDS011;71724;-33.900;151.182;2023-12-20T03:49:17;9.40;;;1.63;;
16743;SDS011;71724;-33.900;151.182;2023-12-20T03:51:45;8.70;;;1.10;;
16743;SDS011;71724;-33.900;151.182;2023-12-20T03:54:12;4.93;;;1.20;;
16743;SDS011;71724;-33.900;151.182;2023-12-20T03:56:41;5.68;;;1.10;;
16743;SDS011;71724;-33.900;151.182;2023-12-20T03:59:09;6.78;;;1.13;;
16743;SDS011;71724;-33.900;151.182;2023-12-20T04:01:37;6.32;;;1.05;;
16743;SDS011;71724;-33.900;151.182;2023-12-20T04:04:04;3.40;;;0.73;;
16743;SDS011;71724;-33.900;151.182;2023-12-20T04:06:31;3.05;;;0.90;;
16743;SDS011;71724;-33.900;151.182;2023-12-20T04:08:59;4.15;;;1.05;;
16743;SDS011;71724;-33.900;151.182;2023-12-20T04:11:26;6.55;;;1.00;;
16743;SDS011;71724;-33.900;151.182;2023-12-20T04:13:55;3.00;;;0.77;;
16743;SDS011;71724;-33.900;151.182;2023-12-20T04:16:22;5.50;;;0.90;;
16743;SDS011;71724;-33.900;151.182;2023-12-20T04:18:49;3.75;;;0.77;;
16743;SDS011;71724;-33.900;151.182;2023-12-20T04:21:17;2.75;;;0.90;;
16743;SDS011;71724;-33.900;151.182;2023-12-20T04:23:46;4.28;;;1.20;;
16743;SDS011;71724;-33.900;151.182;2023-12-20T04:26:13;4.32;;;0.70;;
16743;SDS011;71724;-33.900;151.182;2023-12-20T04:28:41;3.03;;;0.85;;
16743;SDS011;71724;-33.900;151.182;2023-12-20T04:31:08;7.13;;;1.10;;
16743;SDS011;71724;-33.900;151.182;2023-12-20T04:33:36;3.85;;;0.93;;
16743;SDS011;71724;-33.900;151.182;2023-12-20T04:36:03;6.65;;;0.95;;
16743;SDS011;71724;-33.900;151.182;2023-12-20T04:38:31;6.28;;;1.00;;
16743;SDS011;71724;-33.900;151.182;2023-12-20T04:40:59;3.42;;;0.90;;
16743;SDS011;71724;-33.900;151.182;2023-12-20T04:43:28;4.53;;;1.00;;
16743;SDS011;71724;-33.900;151.182;2023-12-20T04:45:56;5.55;;;1.00;;
16743;SDS011;71724;-33.900;151.182;2023-12-20T04:48:23;9.38;;;1.13;;
16743;SDS011;71724;-33.900;151.182;2023-12-20T04:50:51;8.18;;;1.42;;
16743;SDS011;71724;-33.900;151.182;2023-12-20T04:53:19;8.48;;;1.20;;
16743;SDS011;71724;-33.900;151.182;2023-12-20T04:55:46;5.88;;;0.95;;
16743;SDS011;71724;-33.900;151.182;2023-12-20T04:58:13;3.38;;;1.25;;
16743;SDS011;71724;-33.900;151.182;2023-12-20T05:00:41;2.45;;;0.93;;
16743;SDS011;71724;-33.900;151.182;2023-12-20T05:03:08;5.72;;;1.10;;
16743;SDS011;71724;-33.900;151.182;2023-12-20T05:05:35;6.55;;;1.23;;
16743;SDS011;71724;-33.900;151.182;2023-12-20T05:08:04;2.53;;;0.80;;
16743;SDS011;71724;-33.900;151.182;2023-12-20T05:10:31;7.13;;;0.82;;
16743;SDS011;71724;-33.900;151.182;2023-12-20T05:12:59;5.55;;;1.08;;
16743;SDS011;71724;-33.900;151.182;2023-12-20T05:15:26;5.90;;;1.45;;
16743;SDS011;71724;-33.900;151.182;2023-12-20T05:17:53;6.50;;;1.42;;
16743;SDS011;71724;-33.900;151.182;2023-12-20T05:20:21;7.85;;;0.90;;
16743;SDS011;71724;-33.900;151.182;2023-12-20T05:22:49;3.05;;;0.70;;
16743;SDS011;71724;-33.900;151.182;2023-12-20T05:25:16;6.18;;;1.25;;
16743;SDS011;71724;-33.900;151.182;2023-12-20T05:27:44;9.07;;;1.20;;
16743;SDS011;71724;-33.900;151.182;2023-12-20T05:30:11;7.18;;;1.13;;
16743;SDS011;71724;-33.900;151.182;2023-12-20T05:32:39;5.38;;;1.17;;
16743;SDS011;71724;-33.900;151.182;2023-12-20T05:35:06;7.80;;;0.90;;
16743;SDS011;71724;-33.900;151.182;2023-12-20T05:37:34;7.75;;;1.55;;
16743;SDS011;71724;-33.900;151.182;2023-12-20T05:40:01;11.93;;;1.30;;
16743;SDS011;71724;-33.900;151.182;2023-12-20T05:42:29;9.60;;;1.10;;
16743;SDS011;71724;-33.900;151.182;2023-12-20T05:44:57;6.68;;;1.50;;
16743;SDS011;71724;-33.900;151.182;2023-12-20T05:47:24;6.72;;;0.75;;
16743;SDS011;71724;-33.900;151.182;2023-12-20T05:49:51;10.10;;;1.67;;
16743;SDS011;71724;-33.900;151.182;2023-12-20T05:52:19;5.15;;;1.58;;
16743;SDS011;71724;-33.900;151.182;2023-12-20T05:54:48;5.68;;;0.98;;
16743;SDS011;71724;-33.900;151.182;2023-12-20T05:57:15;8.60;;;2.15;;
16743;SDS011;71724;-33.900;151.182;2023-12-20T05:59:43;9.65;;;1.27;;
16743;SDS011;71724;-33.900;151.182;2023-12-20T06:02:10;6.47;;;1.45;;
16743;SDS011;71724;-33.900;151.182;2023-12-20T06:04:37;7.95;;;1.42;;
16743;SDS011;71724;-33.900;151.182;2023-12-20T06:07:12;5.10;;;1.00;;
16743;SDS011;71724;-33.900;151.182;2023-12-20T06:09:40;8.25;;;1.20;;
16743;SDS011;71724;-33.900;151.182;2023-12-20T06:12:08;10.60;;;1.50;;
16743;SDS011;71724;-33.900;151.182;2023-12-20T06:14:38;7.75;;;1.60;;
16743;SDS011;71724;-33.900;151.182;2023-12-20T06:17:06;4.25;;;1.10;;
16743;SDS011;71724;-33.900;151.182;2023-12-20T06:19:33;8.82;;;1.35;;
16743;SDS011;71724;-33.900;151.182;2023-12-20T06:22:00;6.38;;;1.23;;
16743;SDS011;71724;-33.900;151.182;2023-12-20T06:24:28;6.00;;;1.27;;
16743;SDS011;71724;-33.900;151.182;2023-12-20T06:26:55;8.70;;;1.38;;
16743;SDS011;71724;-33.900;151.182;2023-12-20T06:29:43;4.40;;;1.40;;
16743;SDS011;71724;-33.900;151.182;2023-12-20T06:32:10;8.07;;;1.38;;
16743;SDS011;71724;-33.900;151.182;2023-12-20T06:34:38;5.07;;;1.27;;
16743;SDS011;71724;-33.900;151.182;2023-12-20T06:37:05;6.97;;;1.30;;
16743;SDS011;71724;-33.900;151.182;2023-12-20T06:39:32;6.63;;;1.17;;
16743;SDS011;71724;-33.900;151.182;2023-12-20T06:42:00;10.68;;;1.90;;
16743;SDS011;71724;-33.900;151.182;2023-12-20T06:44:27;5.32;;;1.10;;
16743;SDS011;71724;-33.900;151.182;2023-12-20T06:47:04;11.07;;;1.58;;
16743;SDS011;71724;-33.900;151.182;2023-12-20T06:49:40;8.75;;;1.50;;
16743;SDS011;71724;-33.900;151.182;2023-12-20T06:52:08;5.45;;;1.27;;
16743;SDS011;71724;-33.900;151.182;2023-12-20T06:54:36;5.60;;;1.13;;
16743;SDS011;71724;-33.900;151.182;2023-12-20T06:57:03;4.50;;;0.85;;
16743;SDS011;71724;-33.900;151.182;2023-12-20T06:59:30;5.05;;;1.25;;
16743;SDS011;71724;-33.900;151.182;2023-12-20T07:01:58;5.72;;;1.60;;
16743;SDS011;71724;-33.900;151.182;2023-12-20T07:04:25;6.20;;;1.60;;
16743;SDS011;71724;-33.900;151.182;2023-12-20T07:06:53;8.95;;;1.85;;
16743;SDS011;71724;-33.900;151.182;2023-12-20T07:09:23;6.72;;;1.23;;
16743;SDS011;71724;-33.900;151.182;2023-12-20T07:11:51;6.85;;;1.38;;
16743;SDS011;71724;-33.900;151.182;2023-12-20T07:14:18;7.28;;;1.55;;
16743;SDS011;71724;-33.900;151.182;2023-12-20T07:16:47;9.48;;;1.20;;
16743;SDS011;71724;-33.900;151.182;2023-12-20T07:19:14;10.70;;;1.33;;
16743;SDS011;71724;-33.900;151.182;2023-12-20T07:21:42;10.25;;;1.70;;
16743;SDS011;71724;-33.900;151.182;2023-12-20T07:24:09;5.43;;;1.77;;
16743;SDS011;71724;-33.900;151.182;2023-12-20T07:26:36;5.90;;;1.20;;
16743;SDS011;71724;-33.900;151.182;2023-12-20T07:29:05;6.00;;;1.30;;
16743;SDS011;71724;-33.900;151.182;2023-12-20T07:31:32;6.82;;;1.90;;
16743;SDS011;71724;-33.900;151.182;2023-12-20T07:34:00;9.05;;;1.73;;
16743;SDS011;71724;-33.900;151.182;2023-12-20T07:36:29;9.15;;;1.52;;
16743;SDS011;71724;-33.900;151.182;2023-12-20T07:38:57;4.95;;;1.25;;
16743;SDS011;71724;-33.900;151.182;2023-12-20T07:41:25;6.93;;;1.30;;
16743;SDS011;71724;-33.900;151.182;2023-12-20T07:43:52;8.15;;;1.50;;
16743;SDS011;71724;-33.900;151.182;2023-12-20T07:46:20;9.40;;;1.73;;
16743;SDS011;71724;-33.900;151.182;2023-12-20T07:48:55;8.35;;;1.35;;
16743;SDS011;71724;-33.900;151.182;2023-12-20T07:51:23;11.43;;;1.63;;
16743;SDS011;71724;-33.900;151.182;2023-12-20T07:53:51;8.18;;;1.70;;
16743;SDS011;71724;-33.900;151.182;2023-12-20T07:56:26;13.25;;;1.98;;
16743;SDS011;71724;-33.900;151.182;2023-12-20T07:58:55;9.23;;;2.08;;
16743;SDS011;71724;-33.900;151.182;2023-12-20T08:01:23;7.70;;;1.55;;
16743;SDS011;71724;-33.900;151.182;2023-12-20T08:03:50;5.00;;;1.30;;
16743;SDS011;71724;-33.900;151.182;2023-12-20T08:06:18;5.75;;;1.60;;
16743;SDS011;71724;-33.900;151.182;2023-12-20T08:08:45;9.77;;;2.00;;
16743;SDS011;71724;-33.900;151.182;2023-12-20T08:11:13;11.15;;;2.47;;
16743;SDS011;71724;-33.900;151.182;2023-12-20T08:13:40;9.15;;;1.80;;
16743;SDS011;71724;-33.900;151.182;2023-12-20T08:16:08;9.38;;;2.03;;
16743;SDS011;71724;-33.900;151.182;2023-12-20T08:18:39;9.25;;;1.77;;
16743;SDS011;71724;-33.900;151.182;2023-12-20T08:21:06;5.63;;;1.48;;
16743;SDS011;71724;-33.900;151.182;2023-12-20T08:23:34;7.20;;;1.73;;
16743;SDS011;71724;-33.900;151.182;2023-12-20T08:26:05;10.07;;;1.80;;
16743;SDS011;71724;-33.900;151.182;2023-12-20T08:28:41;8.75;;;1.90;;
16743;SDS011;71724;-33.900;151.182;2023-12-20T08:31:13;6.05;;;1.45;;
16743;SDS011;71724;-33.900;151.182;2023-12-20T08:33:44;5.05;;;1.50;;
16743;SDS011;71724;-33.900;151.182;2023-12-20T08:36:12;8.50;;;1.58;;
16743;SDS011;71724;-33.900;151.182;2023-12-20T08:38:43;5.60;;;1.23;;
16743;SDS011;71724;-33.900;151.182;2023-12-20T08:41:11;6.20;;;1.45;;
16743;SDS011;71724;-33.900;151.182;2023-12-20T08:43:38;6.65;;;1.40;;
16743;SDS011;71724;-33.900;151.182;2023-12-20T08:46:06;3.60;;;1.10;;
16743;SDS011;71724;-33.900;151.182;2023-12-20T08:48:35;4.32;;;1.05;;
16743;SDS011;71724;-33.900;151.182;2023-12-20T08:51:03;6.90;;;1.70;;
16743;SDS011;71724;-33.900;151.182;2023-12-20T08:53:34;5.90;;;1.42;;
16743;SDS011;71724;-33.900;151.182;2023-12-20T08:56:01;4.18;;;1.23;;
16743;SDS011;71724;-33.900;151.182;2023-12-20T08:58:31;6.63;;;1.48;;
16743;SDS011;71724;-33.900;151.182;2023-12-20T09:01:01;9.35;;;1.50;;
16743;SDS011;71724;-33.900;151.182;2023-12-20T09:03:29;7.63;;;1.80;;
16743;SDS011;71724;-33.900;151.182;2023-12-20T09:05:56;4.47;;;1.40;;
16743;SDS011;71724;-33.900;151.182;2023-12-20T09:08:23;7.32;;;1.30;;
16743;SDS011;71724;-33.900;151.182;2023-12-20T09:10:51;5.80;;;1.40;;
16743;SDS011;71724;-33.900;151.182;2023-12-20T09:13:18;8.57;;;1.77;;
16743;SDS011;71724;-33.900;151.182;2023-12-20T09:15:46;6.97;;;1.60;;
16743;SDS011;71724;-33.900;151.182;2023-12-20T09:18:13;6.43;;;2.05;;
16743;SDS011;71724;-33.900;151.182;2023-12-20T09:20:41;7.10;;;1.75;;
16743;SDS011;71724;-33.900;151.182;2023-12-20T09:23:08;5.18;;;1.65;;
16743;SDS011;71724;-33.900;151.182;2023-12-20T09:25:35;10.45;;;1.73;;
16743;SDS011;71724;-33.900;151.182;2023-12-20T09:28:03;7.75;;;1.63;;
16743;SDS011;71724;-33.900;151.182;2023-12-20T09:30:30;10.23;;;2.10;;
16743;SDS011;71724;-33.900;151.182;2023-12-20T09:32:59;12.07;;;2.97;;
16743;SDS011;71724;-33.900;151.182;2023-12-20T09:35:27;4.88;;;1.40;;
16743;SDS011;71724;-33.900;151.182;2023-12-20T09:37:54;7.32;;;1.42;;
16743;SDS011;71724;-33.900;151.182;2023-12-20T09:40:22;5.00;;;1.27;;
16743;SDS011;71724;-33.900;151.182;2023-12-20T09:42:59;5.95;;;1.20;;
16743;SDS011;71724;-33.900;151.182;2023-12-20T09:45:35;7.38;;;1.52;;
16743;SDS011;71724;-33.900;151.182;2023-12-20T09:48:03;9.55;;;2.00;;
16743;SDS011;71724;-33.900;151.182;2023-12-20T09:50:31;5.70;;;1.27;;
16743;SDS011;71724;-33.900;151.182;2023-12-20T09:53:01;8.00;;;1.60;;
16743;SDS011;71724;-33.900;151.182;2023-12-20T09:55:31;7.82;;;1.98;;
16743;SDS011;71724;-33.900;151.182;2023-12-20T09:58:00;7.70;;;1.77;;
16743;SDS011;71724;-33.900;151.182;2023-12-20T10:00:27;7.10;;;1.48;;
16743;SDS011;71724;-33.900;151.182;2023-12-20T10:02:59;8.10;;;1.73;;
16743;SDS011;71724;-33.900;151.182;2023-12-20T10:05:27;7.78;;;1.52;;
16743;SDS011;71724;-33.900;151.182;2023-12-20T10:07:57;6.72;;;1.10;;
16743;SDS011;71724;-33.900;151.182;2023-12-20T10:10:25;5.72;;;1.55;;
16743;SDS011;71724;-33.900;151.182;2023-12-20T10:13:06;4.20;;;1.38;;
16743;SDS011;71724;-33.900;151.182;2023-12-20T10:15:37;6.53;;;1.40;;
16743;SDS011;71724;-33.900;151.182;2023-12-20T10:18:06;9.70;;;1.85;;
16743;SDS011;71724;-33.900;151.182;2023-12-20T10:20:34;14.23;;;1.98;;
16743;SDS011;71724;-33.900;151.182;2023-12-20T10:23:01;9.93;;;1.63;;
16743;SDS011;71724;-33.900;151.182;2023-12-20T10:25:29;7.82;;;1.50;;
16743;SDS011;71724;-33.900;151.182;2023-12-20T10:30:42;9.70;;;1.35;;
16743;SDS011;71724;-33.900;151.182;2023-12-20T10:33:10;4.28;;;1.70;;
16743;SDS011;71724;-33.900;151.182;2023-12-20T10:35:38;9.25;;;2.42;;
16743;SDS011;71724;-33.900;151.182;2023-12-20T10:38:06;8.45;;;1.95;;
16743;SDS011;71724;-33.900;151.182;2023-12-20T10:40:35;9.52;;;1.63;;
16743;SDS011;71724;-33.900;151.182;2023-12-20T10:43:03;6.25;;;1.60;;
16743;SDS011;71724;-33.900;151.182;2023-12-20T10:45:31;6.90;;;1.60;;
16743;SDS011;71724;-33.900;151.182;2023-12-20T10:47:58;7.70;;;1.55;;
16743;SDS011;71724;-33.900;151.182;2023-12-20T10:50:27;4.47;;;1.48;;
16743;SDS011;71724;-33.900;151.182;2023-12-20T10:52:57;7.05;;;1.05;;
16743;SDS011;71724;-33.900;151.182;2023-12-20T10:55:25;4.88;;;1.52;;
16743;SDS011;71724;-33.900;151.182;2023-12-20T10:57:54;4.10;;;1.35;;
16743;SDS011;71724;-33.900;151.182;2023-12-20T11:00:28;5.85;;;1.30;;
16743;SDS011;71724;-33.900;151.182;2023-12-20T11:03:00;7.05;;;1.45;;
16743;SDS011;71724;-33.900;151.182;2023-12-20T11:05:33;5.10;;;1.30;;
16743;SDS011;71724;-33.900;151.182;2023-12-20T11:08:28;6.70;;;1.33;;
16743;SDS011;71724;-33.900;151.182;2023-12-20T11:14:04;4.95;;;1.20;;
16743;SDS011;71724;-33.900;151.182;2023-12-20T11:16:41;3.67;;;1.00;;
16743;SDS011;71724;-33.900;151.182;2023-12-20T11:19:09;3.25;;;0.95;;
16743;SDS011;71724;-33.900;151.182;2023-12-20T11:21:39;5.30;;;1.20;;
16743;SDS011;71724;-33.900;151.182;2023-12-20T11:24:07;5.18;;;1.42;;
16743;SDS011;71724;-33.900;151.182;2023-12-20T11:26:35;5.63;;;1.45;;
16743;SDS011;71724;-33.900;151.182;2023-12-20T11:32:01;10.52;;;1.35;;
16743;SDS011;71724;-33.900;151.182;2023-12-20T11:34:50;9.77;;;1.30;;
16743;SDS011;71724;-33.900;151.182;2023-12-20T11:37:19;6.88;;;1.27;;
16743;SDS011;71724;-33.900;151.182;2023-12-20T11:40:01;4.03;;;1.20;;
16743;SDS011;71724;-33.900;151.182;2023-12-20T11:42:41;3.05;;;1.27;;
16743;SDS011;71724;-33.900;151.182;2023-12-20T11:45:10;4.55;;;1.05;;
16743;SDS011;71724;-33.900;151.182;2023-12-20T11:47:44;7.53;;;1.30;;
16743;SDS011;71724;-33.900;151.182;2023-12-20T11:50:13;2.53;;;1.00;;
16743;SDS011;71724;-33.900;151.182;2023-12-20T11:52:40;5.25;;;1.60;;
16743;SDS011;71724;-33.900;151.182;2023-12-20T11:55:07;6.03;;;1.98;;
16743;SDS011;71724;-33.900;151.182;2023-12-20T11:57:35;5.50;;;1.50;;
16743;SDS011;71724;-33.900;151.182;2023-12-20T12:00:06;6.97;;;1.80;;
16743;SDS011;71724;-33.900;151.182;2023-12-20T12:02:34;4.28;;;1.40;;
16743;SDS011;71724;-33.900;151.182;2023-12-20T12:05:02;3.80;;;1.23;;
16743;SDS011;71724;-33.900;151.182;2023-12-20T12:07:31;4.13;;;1.20;;
16743;SDS011;71724;-33.900;151.182;2023-12-20T12:10:00;6.10;;;1.27;;
16743;SDS011;71724;-33.900;151.182;2023-12-20T12:12:29;5.93;;;1.35;;
16743;SDS011;71724;-33.900;151.182;2023-12-20T12:14:57;4.22;;;1.50;;
16743;SDS011;71724;-33.900;151.182;2023-12-20T12:17:25;8.07;;;1.55;;
16743;SDS011;71724;-33.900;151.182;2023-12-20T12:19:52;5.05;;;2.00;;
16743;SDS011;71724;-33.900;151.182;2023-12-20T12:22:30;3.97;;;1.77;;
16743;SDS011;71724;-33.900;151.182;2023-12-20T12:25:16;6.18;;;1.13;;
16743;SDS011;71724;-33.900;151.182;2023-12-20T12:27:43;4.60;;;1.00;;
16743;SDS011;71724;-33.900;151.182;2023-12-20T12:30:11;6.53;;;1.20;;
16743;SDS011;71724;-33.900;151.182;2023-12-20T12:32:39;2.47;;;0.73;;
16743;SDS011;71724;-33.900;151.182;2023-12-20T12:35:07;6.30;;;1.00;;
16743;SDS011;71724;-33.900;151.182;2023-12-20T12:37:35;3.92;;;0.93;;
16743;SDS011;71724;-33.900;151.182;2023-12-20T12:40:10;8.80;;;1.20;;
16743;SDS011;71724;-33.900;151.182;2023-12-20T12:42:40;7.63;;;1.25;;
16743;SDS011;71724;-33.900;151.182;2023-12-20T12:45:09;2.15;;;1.17;;
16743;SDS011;71724;-33.900;151.182;2023-12-20T12:47:39;2.35;;;0.93;;
16743;SDS011;71724;-33.900;151.182;2023-12-20T12:50:06;3.42;;;0.80;;
16743;SDS011;71724;-33.900;151.182;2023-12-20T12:52:35;3.20;;;0.93;;
16743;SDS011;71724;-33.900;151.182;2023-12-20T12:55:03;1.40;;;0.80;;
16743;SDS011;71724;-33.900;151.182;2023-12-20T12:57:30;2.55;;;1.05;;
16743;SDS011;71724;-33.900;151.182;2023-12-20T12:59:59;3.83;;;1.00;;
16743;SDS011;71724;-33.900;151.182;2023-12-20T13:02:26;1.45;;;0.85;;
16743;SDS011;71724;-33.900;151.182;2023-12-20T13:04:53;3.22;;;0.82;;
16743;SDS011;71724;-33.900;151.182;2023-12-20T13:07:21;3.47;;;0.90;;
16743;SDS011;71724;-33.900;151.182;2023-12-20T13:09:48;1.40;;;0.90;;
16743;SDS011;71724;-33.900;151.182;2023-12-20T13:12:15;1.73;;;0.90;;
16743;SDS011;71724;-33.900;151.182;2023-12-20T13:14:47;5.15;;;1.08;;
16743;SDS011;71724;-33.900;151.182;2023-12-20T13:17:14;2.05;;;0.63;;
16743;SDS011;71724;-33.900;151.182;2023-12-20T13:19:42;2.60;;;0.95;;
16743;SDS011;71724;-33.900;151.182;2023-12-20T13:22:09;2.20;;;0.90;;
16743;SDS011;71724;-33.900;151.182;2023-12-20T13:24:37;3.67;;;0.80;;
16743;SDS011;71724;-33.900;151.182;2023-12-20T13:27:04;4.07;;;1.10;;
16743;SDS011;71724;-33.900;151.182;2023-12-20T13:29:31;1.45;;;0.68;;
16743;SDS011;71724;-33.900;151.182;2023-12-20T13:31:59;2.53;;;0.75;;
16743;SDS011;71724;-33.900;151.182;2023-12-20T13:34:26;1.92;;;0.70;;
16743;SDS011;71724;-33.900;151.182;2023-12-20T13:36:54;2.65;;;0.90;;
16743;SDS011;71724;-33.900;151.182;2023-12-20T13:39:22;5.70;;;1.00;;
16743;SDS011;71724;-33.900;151.182;2023-12-20T13:41:49;4.32;;;0.70;;
16743;SDS011;71724;-33.900;151.182;2023-12-20T13:44:17;1.65;;;0.70;;
16743;SDS011;71724;-33.900;151.182;2023-12-20T13:46:44;4.63;;;0.90;;
16743;SDS011;71724;-33.900;151.182;2023-12-20T13:49:12;4.65;;;0.82;;
16743;SDS011;71724;-33.900;151.182;2023-12-20T13:51:39;3.28;;;0.90;;
16743;SDS011;71724;-33.900;151.182;2023-12-20T13:54:10;2.47;;;0.93;;
16743;SDS011;71724;-33.900;151.182;2023-12-20T13:56:38;4.85;;;0.70;;
16743;SDS011;71724;-33.900;151.182;2023-12-20T13:59:05;1.77;;;0.80;;
16743;SDS011;71724;-33.900;151.182;2023-12-20T14:01:33;2.15;;;0.65;;
16743;SDS011;71724;-33.900;151.182;2023-12-20T14:04:01;3.05;;;0.70;;
16743;SDS011;71724;-33.900;151.182;2023-12-20T14:06:28;2.65;;;0.90;;
16743;SDS011;71724;-33.900;151.182;2023-12-20T14:08:56;3.10;;;0.60;;
16743;SDS011;71724;-33.900;151.182;2023-12-20T14:11:26;3.20;;;0.68;;
16743;SDS011;71724;-33.900;151.182;2023-12-20T14:13:53;5.47;;;0.80;;
16743;SDS011;71724;-33.900;151.182;2023-12-20T14:16:24;0.95;;;0.70;;
16743;SDS011;71724;-33.900;151.182;2023-12-20T14:18:51;3.47;;;0.55;;
16743;SDS011;71724;-33.900;151.182;2023-12-20T14:21:22;2.05;;;0.60;;
16743;SDS011;71724;-33.900;151.182;2023-12-20T14:23:50;1.38;;;0.60;;
16743;SDS011;71724;-33.900;151.182;2023-12-20T14:26:18;1.77;;;0.70;;
16743;SDS011;71724;-33.900;151.182;2023-12-20T14:28:46;1.15;;;0.50;;